Time;durP1;ratioP1;P1;durP2;ratioP2;P2;SDS_P1;SDS_P2;PMS_P1;PMS_P2;Temp;Humidity;BMP_temperature;BMP_pressure;BME280_temperature;BME280_humidity;BME280_pressure;Samples;Min_cycle;Max_cycle;Signal;HPM_P1;HPM_P2
2023/09/23 00:01:33;;;;;;;;;;;;;;;;;;6254135;22;19919;-87
2023/09/23 00:04:00;;;;;;;;;;;;;;;;;;6256613;22;19942;-87
2023/09/23 00:06:27;;;;;;;;;;;;;;;;;;6253834;22;19923;-87
2023/09/23 00:08:57;;;;;;;;;;;;;;;;;;6253414;22;19919;-87
2023/09/23 00:11:25;;;;;;;;;;;;;;;;;;6253318;22;20351;-87
2023/09/23 00:13:52;;;;;;;;;;;;;;;;;;6230585;22;19925;-87
2023/09/23 00:16:21;;;;;;;;;;;;;;;;;;6259808;22;19990;-87
2023/09/23 00:18:48;;;;;;;;;;;;;;;;;;6256078;22;19919;-87
2023/09/23 00:21:14;;;;;;;;;;;;;;;;;;6230561;22;19927;-87
2023/09/23 00:23:44;;;;;;;;;;;;;;;;;;6253596;22;19926;-87
2023/09/23 00:26:17;;;;;;;;;;;;;;;;;;6258882;22;19931;-87
2023/09/23 00:28:52;;;;;;;;;;;;;;;;;;6259319;22;19957;-87
2023/09/23 00:31:20;;;;;;;;;;;;;;;;;;6258158;22;19919;-87
2023/09/23 00:33:48;;;;;;;;;;;;;;;;;;6254601;22;19919;-87
2023/09/23 00:36:25;;;;;;;;;;;;;;;;;;6256482;22;20328;-87
2023/09/23 00:39:03;;;;;;;;;;;;;;;;;;6258742;22;19919;-88
2023/09/23 00:41:30;;;;;;;;;;;;;;;;;;6228404;22;19927;-87
2023/09/23 00:43:57;;;;;;;;;;;;;;;;;;6255347;22;19998;-87
2023/09/23 00:46:26;;;;;;;;;;;;;;;;;;6230542;22;19934;-87
2023/09/23 00:49:07;;;;;;;;;;;;;;;;;;6257932;22;19926;-87
2023/09/23 00:51:34;;;;;;;;;;;;;;;;;;6230467;22;19923;-87
2023/09/23 00:54:07;;;;;;;;;;;;;;;;;;6258066;22;20053;-87
2023/09/23 00:56:44;;;;;;;;;;;;;;;;;;6255343;22;19919;-87
2023/09/23 00:59:22;;;;;;;;;;;;;;;;;;6258209;22;19919;-87
2023/09/23 01:02:01;;;;;;;;;;;;;;;;;;6259954;22;19930;-87
2023/09/23 01:04:50;;;;;;;;;;;;;;;;;;6228370;22;19919;-87
2023/09/23 01:07:27;;;;;;;;;;;;;;;;;;6226929;22;19923;-87
2023/09/23 01:09:57;;;;;;;;;;;;;;;;;;6231283;22;19926;-87
2023/09/23 01:12:25;;;;;;;;;;;;;;;;;;6229283;22;19923;-88
2023/09/23 01:14:52;;;;;;;;;;;;;;;;;;6257972;22;19925;-88
2023/09/23 01:17:22;;;;;;;;;;;;;;;;;;6255628;22;20101;-87
2023/09/23 01:19:52;;;;;;;;;;;;;;;;;;6252425;22;19953;-88
2023/09/23 01:22:20;;;;;;;;;;;;;;;;;;6229038;22;19919;-87
2023/09/23 01:24:47;;;;;;;;;;;;;;;;;;6227418;22;19923;-87
2023/09/23 01:27:17;;;;;;;;;;;;;;;;;;6206612;22;19924;-88
2023/09/23 01:29:44;;;;;;;;;;;;;;;;;;6205365;22;20227;-87
2023/09/23 01:32:11;;;;;;;;;;;;;;;;;;6206517;22;19925;-87
2023/09/23 01:34:37;;;;;;;;;;;;;;;;;;6228142;22;20010;-86
2023/09/23 01:37:05;;;;;;;;;;;;;;;;;;6229864;22;19994;-87
2023/09/23 01:39:34;;;;;;;;;;;;;;;;;;6228607;22;19919;-87
2023/09/23 01:42:04;;;;;;;;;;;;;;;;;;6232351;22;19923;-87
2023/09/23 01:44:30;;;;;;;;;;;;;;;;;;6228868;22;19926;-87
2023/09/23 01:46:59;;;;;;;;;;;;;;;;;;6259512;22;19923;-87
2023/09/23 01:49:28;;;;;;;;;;;;;;;;;;6257746;22;19919;-87
2023/09/23 01:51:56;;;;;;;;;;;;;;;;;;6256656;22;19919;-87
2023/09/23 01:54:22;;;;;;;;;;;;;;;;;;6204639;22;20627;-87
2023/09/23 01:56:49;;;;;;;;;;;;;;;;;;6229683;22;20267;-87
2023/09/23 01:59:15;;;;;;;;;;;;;;;;;;6231052;22;19926;-87
2023/09/23 02:01:43;;;;;;;;;;;;;;;;;;6234048;22;19935;-87
2023/09/23 02:04:11;;;;;;;;;;;;;;;;;;6254914;22;19942;-88
2023/09/23 02:06:43;;;;;;;;;;;;;;;;;;6253905;22;19946;-87
2023/09/23 02:09:20;;;;;;;;;;;;;;;;;;6259657;22;19919;-87
2023/09/23 02:11:48;;;;;;;;;;;;;;;;;;6256906;22;20358;-87
2023/09/23 02:14:15;;;;;;;;;;;;;;;;;;6232406;22;19926;-86
2023/09/23 02:16:42;;;;;;;;;;;;;;;;;;6254926;22;19926;-88
2023/09/23 02:19:10;;;;;;;;;;;;;;;;;;6258048;22;19923;-87
2023/09/23 02:21:37;;;;;;;;;;;;;;;;;;6228713;22;19927;-87
2023/09/23 02:24:04;;;;;;;;;;;;;;;;;;6257186;22;19927;-87
2023/09/23 02:26:30;;;;;;;;;;;;;;;;;;6255633;22;19980;-87
2023/09/23 02:28:58;;;;;;;;;;;;;;;;;;6259211;22;19919;-88
2023/09/23 02:31:24;;;;;;;;;;;;;;;;;;6256235;22;20292;-87
2023/09/23 02:33:50;;;;;;;;;;;;;;;;;;6256412;22;19923;-87
2023/09/23 02:36:20;;;;;;;;;;;;;;;;;;6257558;22;19919;-87
2023/09/23 02:38:48;;;;;;;;;;;;;;;;;;6229709;22;19994;-87
2023/09/23 02:41:16;;;;;;;;;;;;;;;;;;6255840;22;19915;-87
2023/09/23 02:43:45;;;;;;;;;;;;;;;;;;6254271;22;19922;-87
2023/09/23 02:46:15;;;;;;;;;;;;;;;;;;6257152;22;19930;-87
2023/09/23 02:48:45;;;;;;;;;;;;;;;;;;6252680;22;19988;-87
2023/09/23 02:51:12;;;;;;;;;;;;;;;;;;6230676;22;19991;-87
2023/09/23 02:53:40;;;;;;;;;;;;;;;;;;6248915;22;20331;-87
2023/09/23 02:56:06;;;;;;;;;;;;;;;;;;6256409;22;19922;-87
2023/09/23 02:58:52;;;;;;;;;;;;;;;;;;6255065;22;19942;-87
2023/09/23 03:01:19;;;;;;;;;;;;;;;;;;6229390;22;20345;-87
2023/09/23 03:03:47;;;;;;;;;;;;;;;;;;6253456;22;19919;-87
2023/09/23 03:06:15;;;;;;;;;;;;;;;;;;6229491;22;19994;-87
2023/09/23 03:08:47;;;;;;;;;;;;;;;;;;6229186;22;20711;-88
2023/09/23 03:11:21;;;;;;;;;;;;;;;;;;6230494;22;19919;-87
2023/09/23 03:14:12;;;;;;;;;;;;;;;;;;6229763;22;20340;-87
2023/09/23 03:16:48;;;;;;;;;;;;;;;;;;6229101;22;20018;-87
2023/09/23 03:19:22;;;;;;;;;;;;;;;;;;6257474;22;19927;-87
2023/09/23 03:21:50;;;;;;;;;;;;;;;;;;6234620;22;20433;-87
2023/09/23 03:24:19;;;;;;;;;;;;;;;;;;6232830;22;19919;-87
2023/09/23 03:26:50;;;;;;;;;;;;;;;;;;6259276;22;19929;-87
2023/09/23 03:29:19;;;;;;;;;;;;;;;;;;6261892;22;19997;-87
2023/09/23 03:31:48;;;;;;;;;;;;;;;;;;6258148;22;20318;-87
2023/09/23 03:34:18;;;;;;;;;;;;;;;;;;6261200;22;19915;-87
2023/09/23 03:36:44;;;;;;;;;;;;;;;;;;6256867;22;19919;-87
2023/09/23 03:39:12;;;;;;;;;;;;;;;;;;6258506;22;19919;-87
2023/09/23 03:41:46;;;;;;;;;;;;;;;;;;6257921;22;19923;-87
2023/09/23 03:44:21;;;;;;;;;;;;;;;;;;6227485;22;19919;-87
2023/09/23 03:46:50;;;;;;;;;;;;;;;;;;6257922;22;20005;-87
2023/09/23 03:49:28;;;;;;;;;;;;;;;;;;6228694;22;19919;-87
2023/09/23 03:51:57;;;;;;;;;;;;;;;;;;6208002;22;19926;-87
2023/09/23 03:54:28;;;;;;;;;;;;;;;;;;6232730;22;19930;-88
2023/09/23 03:56:55;;;;;;;;;;;;;;;;;;6232076;22;19927;-87
2023/09/23 03:59:37;;;;;;;;;;;;;;;;;;6255490;22;19930;-87
2023/09/23 04:02:05;;;;;;;;;;;;;;;;;;6238115;22;20050;-87
2023/09/23 04:04:37;;;;;;;;;;;;;;;;;;6255081;22;19973;-87
2023/09/23 04:07:05;;;;;;;;;;;;;;;;;;6256354;22;20354;-87
2023/09/23 04:09:33;;;;;;;;;;;;;;;;;;6229727;22;19926;-87
2023/09/23 04:12:04;;;;;;;;;;;;;;;;;;6258467;22;20221;-87
2023/09/23 04:14:31;;;;;;;;;;;;;;;;;;6229613;22;19926;-87
2023/09/23 04:16:58;;;;;;;;;;;;;;;;;;6230497;22;19920;-87
2023/09/23 04:19:26;;;;;;;;;;;;;;;;;;6256288;22;19994;-87
2023/09/23 04:21:53;;;;;;;;;;;;;;;;;;6256350;22;19973;-86
2023/09/23 04:24:22;;;;;;;;;;;;;;;;;;6255578;22;19982;-87
2023/09/23 04:26:50;;;;;;;;;;;;;;;;;;6229534;22;19933;-87
2023/09/23 04:29:20;;;;;;;;;;;;;;;;;;6259242;22;19919;-86
2023/09/23 04:31:56;;;;;;;;;;;;;;;;;;6258684;22;19955;-87
2023/09/23 04:34:27;;;;;;;;;;;;;;;;;;6254764;22;19919;-87
2023/09/23 04:36:52;;;;;;;;;;;;;;;;;;6233334;22;19923;-87
2023/09/23 04:39:20;;;;;;;;;;;;;;;;;;6257920;22;19930;-87
2023/09/23 04:41:46;;;;;;;;;;;;;;;;;;6253479;22;19926;-88
2023/09/23 04:44:17;;;;;;;;;;;;;;;;;;6257211;22;19965;-87
2023/09/23 04:46:46;;;;;;;;;;;;;;;;;;6254037;22;20311;-87
2023/09/23 04:49:23;;;;;;;;;;;;;;;;;;6258436;22;19965;-87
2023/09/23 04:51:49;;;;;;;;;;;;;;;;;;6223985;22;19931;-87
2023/09/23 04:54:16;;;;;;;;;;;;;;;;;;6227353;22;19919;-87
2023/09/23 04:56:42;;;;;;;;;;;;;;;;;;6227074;22;20191;-87
2023/09/23 04:59:09;;;;;;;;;;;;;;;;;;6230722;22;19926;-87
2023/09/23 05:01:36;;;;;;;;;;;;;;;;;;6224391;22;19930;-87
2023/09/23 05:04:08;;;;;;;;;;;;;;;;;;6227573;22;19916;-87
2023/09/23 05:06:37;;;;;;;;;;;;;;;;;;6227674;22;20022;-87
2023/09/23 05:09:04;;;;;;;;;;;;;;;;;;6229073;22;20028;-87
2023/09/23 05:11:35;;;;;;;;;;;;;;;;;;6227422;22;19925;-87
2023/09/23 05:14:06;;;;;;;;;;;;;;;;;;6228639;22;19915;-87
2023/09/23 05:16:31;;;;;;;;;;;;;;;;;;6226146;22;20399;-87
2023/09/23 05:18:57;;;;;;;;;;;;;;;;;;6231701;22;20014;-87
2023/09/23 05:21:24;;;;;;;;;;;;;;;;;;6203805;22;19919;-87
2023/09/23 05:23:51;;;;;;;;;;;;;;;;;;6252368;22;20313;-87
2023/09/23 05:26:19;;;;;;;;;;;;;;;;;;6255269;22;20321;-87
2023/09/23 05:28:46;;;;;;;;;;;;;;;;;;6255663;22;19919;-87
2023/09/23 05:31:13;;;;;;;;;;;;;;;;;;6227012;22;19990;-87
2023/09/23 05:33:43;;;;;;;;;;;;;;;;;;6254433;22;20485;-87
2023/09/23 05:36:29;;;;;;;;;;;;;;;;;;6252722;22;20343;-87
2023/09/23 05:38:55;;;;;;;;;;;;;;;;;;6252242;22;19919;-87
2023/09/23 05:41:23;;;;;;;;;;;;;;;;;;6231400;22;19919;-88
2023/09/23 05:43:52;;;;;;;;;;;;;;;;;;6254691;22;20241;-88
2023/09/23 05:46:18;;;;;;;;;;;;;;;;;;6255212;22;19923;-87
2023/09/23 05:48:48;;;;;;;;;;;;;;;;;;6226769;22;19919;-88
2023/09/23 05:51:16;;;;;;;;;;;;;;;;;;6232088;22;19919;-87
2023/09/23 05:53:42;;;;;;;;;;;;;;;;;;6230641;22;20754;-88
2023/09/23 05:56:09;;;;;;;;;;;;;;;;;;6260259;22;20276;-87
2023/09/23 05:58:37;;;;;;;;;;;;;;;;;;6230573;22;19951;-87
2023/09/23 06:01:06;;;;;;;;;;;;;;;;;;6257802;22;19943;-87
2023/09/23 06:03:34;;;;;;;;;;;;;;;;;;6255429;22;20518;-87
2023/09/23 06:06:03;;;;;;;;;;;;;;;;;;6261487;22;20211;-88
2023/09/23 06:08:31;;;;;;;;;;;;;;;;;;6257129;22;19922;-87
2023/09/23 06:10:58;;;;;;;;;;;;;;;;;;6259266;22;19973;-87
2023/09/23 06:13:25;;;;;;;;;;;;;;;;;;6254410;22;20251;-88
2023/09/23 06:15:52;;;;;;;;;;;;;;;;;;6232312;22;19926;-87
2023/09/23 06:18:20;;;;;;;;;;;;;;;;;;6258566;22;19919;-87
2023/09/23 06:20:46;;;;;;;;;;;;;;;;;;6257665;22;19926;-87
2023/09/23 06:23:13;;;;;;;;;;;;;;;;;;6232928;22;19969;-87
2023/09/23 06:25:39;;;;;;;;;;;;;;;;;;6254166;22;20355;-87
2023/09/23 06:28:21;;;;;;;;;;;;;;;;;;6271115;22;19923;-88
2023/09/23 06:30:49;;;;;;;;;;;;;;;;;;6263875;22;19919;-87
2023/09/23 06:33:15;;;;;;;;;;;;;;;;;;6258196;22;19923;-87
2023/09/23 06:35:45;;;;;;;;;;;;;;;;;;6254665;22;20323;-87
2023/09/23 06:38:16;;;;;;;;;;;;;;;;;;6253393;22;20008;-87
2023/09/23 06:40:43;;;;;;;;;;;;;;;;;;6257838;22;19919;-87
2023/09/23 06:43:12;;;;;;;;;;;;;;;;;;6259840;22;19957;-87
2023/09/23 06:45:41;;;;;;;;;;;;;;;;;;6259977;22;19915;-87
2023/09/23 06:48:22;;;;;;;;;;;;;;;;;;6259883;22;19962;-87
2023/09/23 06:51:02;;;;;;;;;;;;;;;;;;6261649;22;20614;-87
2023/09/23 06:53:31;;;;;;;;;;;;;;;;;;6257211;22;19916;-87
2023/09/23 06:55:57;;;;;;;;;;;;;;;;;;6259467;22;19919;-87
2023/09/23 06:58:39;;;;;;;;;;;;;;;;;;6258709;22;19919;-87
2023/09/23 07:01:06;;;;;;;;;;;;;;;;;;6260956;22;19961;-86
2023/09/23 07:03:36;;;;;;;;;;;;;;;;;;6260109;22;19919;-86
2023/09/23 07:06:22;;;;;;;;;;;;;;;;;;6234015;22;19931;-87
2023/09/23 07:08:53;;;;;;;;;;;;;;;;;;6233241;22;19915;-86
2023/09/23 07:11:20;;;;;;;;;;;;;;;;;;6208212;22;20346;-87
2023/09/23 07:13:48;;;;;;;;;;;;;;;;;;6232270;22;19952;-87
2023/09/23 07:16:14;;;;;;;;;;;;;;;;;;6206529;22;19926;-87
2023/09/23 07:18:42;;;;;;;;;;;;;;;;;;6202895;22;19919;-87
2023/09/23 07:21:09;;;;;;;;;;;;;;;;;;6207929;22;19919;-87
2023/09/23 07:23:37;;;;;;;;;;;;;;;;;;6203913;22;19919;-87
2023/09/23 07:26:05;;;;;;;;;;;;;;;;;;6234607;22;19922;-87
2023/09/23 07:28:32;;;;;;;;;;;;;;;;;;6205428;22;19919;-86
2023/09/23 07:31:00;;;;;;;;;;;;;;;;;;6259220;22;19919;-86
2023/09/23 07:33:41;;;;;;;;;;;;;;;;;;6254694;22;19919;-87
2023/09/23 07:36:07;;;;;;;;;;;;;;;;;;6206134;22;19973;-87
2023/09/23 07:38:33;;;;;;;;;;;;;;;;;;6232570;22;19931;-87
2023/09/23 07:41:00;;;;;;;;;;;;;;;;;;6207886;22;19919;-87
2023/09/23 07:43:28;;;;;;;;;;;;;;;;;;6230085;22;19923;-88
2023/09/23 07:45:54;;;;;;;;;;;;;;;;;;6234349;22;20748;-89
2023/09/23 07:48:22;;;;;;;;;;;;;;;;;;6229391;22;19919;-86
2023/09/23 07:50:54;;;;;;;;;;;;;;;;;;6259875;22;19937;-87
2023/09/23 07:53:31;;;;;;;;;;;;;;;;;;6207359;22;19919;-88
2023/09/23 07:56:00;;;;;;;;;;;;;;;;;;6259081;22;19919;-86
2023/09/23 07:58:29;;;;;;;;;;;;;;;;;;6257782;22;19919;-88
2023/09/23 08:00:59;;;;;;;;;;;;;;;;;;6259805;22;19919;-88
2023/09/23 08:03:27;;;;;;;;;;;;;;;;;;6225818;22;19992;-89
2023/09/23 08:05:54;;;;;;;;;;;;;;;;;;6256050;22;20407;-90
2023/09/23 08:08:22;;;;;;;;;;;;;;;;;;6232213;22;19919;-89
2023/09/23 08:10:53;;;;;;;;;;;;;;;;;;6256212;22;19919;-87
2023/09/23 08:13:22;;;;;;;;;;;;;;;;;;6261258;22;19969;-87
2023/09/23 08:15:50;;;;;;;;;;;;;;;;;;6259840;22;20391;-87
2023/09/23 08:18:17;;;;;;;;;;;;;;;;;;6259043;22;19926;-87
2023/09/23 08:20:45;;;;;;;;;;;;;;;;;;6259994;22;19927;-87
2023/09/23 08:23:11;;;;;;;;;;;;;;;;;;6256526;22;19919;-87
2023/09/23 08:25:54;;;;;;;;;;;;;;;;;;6259678;22;19984;-87
2023/09/23 08:28:21;;;;;;;;;;;;;;;;;;6260002;22;19918;-87
2023/09/23 08:30:51;;;;;;;;;;;;;;;;;;6261168;22;20324;-87
2023/09/23 08:33:17;;;;;;;;;;;;;;;;;;6259671;22;20005;-87
2023/09/23 08:35:45;;;;;;;;;;;;;;;;;;6258404;22;19919;-87
2023/09/23 08:38:10;;;;;;;;;;;;;;;;;;6258456;22;20174;-87
2023/09/23 08:40:37;;;;;;;;;;;;;;;;;;6230953;22;20312;-87
2023/09/23 08:43:03;;;;;;;;;;;;;;;;;;6255962;22;20264;-87
2023/09/23 08:45:31;;;;;;;;;;;;;;;;;;6230455;22;19923;-87
2023/09/23 08:47:58;;;;;;;;;;;;;;;;;;6259792;22;19958;-87
2023/09/23 08:50:26;;;;;;;;;;;;;;;;;;6256282;22;20430;-87
2023/09/23 08:53:06;;;;;;;;;;;;;;;;;;6257319;22;19926;-87
2023/09/23 08:55:32;;;;;;;;;;;;;;;;;;6255396;22;20313;-87
2023/09/23 08:58:04;;;;;;;;;;;;;;;;;;6255958;22;19919;-87
2023/09/23 09:00:31;;;;;;;;;;;;;;;;;;6232259;22;20015;-87
2023/09/23 09:02:59;;;;;;;;;;;;;;;;;;6257080;22;20346;-87
2023/09/23 09:05:26;;;;;;;;;;;;;;;;;;6228011;22;19919;-87
2023/09/23 09:07:53;;;;;;;;;;;;;;;;;;6254094;22;19930;-87
2023/09/23 09:10:21;;;;;;;;;;;;;;;;;;6257509;22;19915;-87
2023/09/23 09:12:47;;;;;;;;;;;;;;;;;;6228536;22;19939;-87
2023/09/23 09:15:13;;;;;;;;;;;;;;;;;;6229995;22;20041;-88
2023/09/23 09:17:40;;;;;;;;;;;;;;;;;;6255360;22;19989;-87
2023/09/23 09:20:11;;;;;;;;;;;;;;;;;;6256443;22;19919;-88
2023/09/23 09:22:39;;;;;;;;;;;;;;;;;;6228847;22;20000;-87
2023/09/23 09:25:06;;;;;;;;;;;;;;;;;;6229842;22;19919;-87
2023/09/23 09:27:43;;;;;;;;;;;;;;;;;;6253714;22;19923;-87
2023/09/23 09:30:11;;;;;;;;;;;;;;;;;;6256091;22;19920;-87
2023/09/23 09:32:56;;;;;;;;;;;;;;;;;;6253826;22;19919;-87
2023/09/23 09:35:22;;;;;;;;;;;;;;;;;;6255471;22;19923;-88
2023/09/23 09:37:48;;;;;;;;;;;;;;;;;;6255075;22;19934;-87
2023/09/23 09:40:15;;;;;;;;;;;;;;;;;;6229523;22;19923;-88
2023/09/23 09:42:43;;;;;;;;;;;;;;;;;;6251677;22;19946;-88
2023/09/23 09:45:13;;;;;;;;;;;;;;;;;;6256979;22;19923;-88
2023/09/23 09:47:43;;;;;;;;;;;;;;;;;;6248147;22;19934;-87
2023/09/23 09:50:10;;;;;;;;;;;;;;;;;;6230349;22;19920;-88
2023/09/23 09:52:37;;;;;;;;;;;;;;;;;;6251513;22;19919;-87
2023/09/23 09:55:03;;;;;;;;;;;;;;;;;;6255954;22;19950;-88
2023/09/23 09:57:31;;;;;;;;;;;;;;;;;;6251352;22;19926;-88
2023/09/23 10:00:27;;;;;;;;;;;;;;;;;;6255756;22;19922;-88
2023/09/23 10:02:56;;;;;;;;;;;;;;;;;;6253448;22;20324;-88
2023/09/23 10:05:25;;;;;;;;;;;;;;;;;;6255546;22;19922;-88
2023/09/23 10:07:55;;;;;;;;;;;;;;;;;;6255676;22;20312;-87
2023/09/23 10:10:21;;;;;;;;;;;;;;;;;;6258081;22;19927;-87
2023/09/23 10:13:07;;;;;;;;;;;;;;;;;;6258516;22;19973;-87
2023/09/23 10:15:37;;;;;;;;;;;;;;;;;;6256488;22;19922;-87
2023/09/23 10:18:07;;;;;;;;;;;;;;;;;;6257723;22;20408;-87
2023/09/23 10:20:34;;;;;;;;;;;;;;;;;;6230456;22;19923;-87
2023/09/23 10:23:01;;;;;;;;;;;;;;;;;;6256559;22;19926;-87
2023/09/23 10:25:28;;;;;;;;;;;;;;;;;;6229379;22;19926;-88
2023/09/23 10:28:03;;;;;;;;;;;;;;;;;;6259548;22;19929;-88
2023/09/23 10:30:32;;;;;;;;;;;;;;;;;;6260888;22;19947;-88
2023/09/23 10:32:58;;;;;;;;;;;;;;;;;;6257921;22;19961;-88
2023/09/23 10:35:26;;;;;;;;;;;;;;;;;;6255944;22;19962;-87
2023/09/23 10:37:55;;;;;;;;;;;;;;;;;;6260010;22;19923;-88
2023/09/23 10:40:22;;;;;;;;;;;;;;;;;;6236807;22;19954;-87
2023/09/23 10:42:49;;;;;;;;;;;;;;;;;;6260346;22;19986;-88
2023/09/23 10:45:20;;;;;;;;;;;;;;;;;;6257918;22;20316;-88
2023/09/23 10:47:47;;;;;;;;;;;;;;;;;;6258225;22;19927;-88
2023/09/23 10:50:15;;;;;;;;;;;;;;;;;;6261382;22;19923;-88
2023/09/23 10:52:43;;;;;;;;;;;;;;;;;;6257484;22;19964;-87
2023/09/23 10:55:10;;;;;;;;;;;;;;;;;;6233287;22;19926;-88
2023/09/23 10:57:38;;;;;;;;;;;;;;;;;;6259006;22;20347;-87
2023/09/23 11:00:12;;;;;;;;;;;;;;;;;;6235830;22;19919;-88
2023/09/23 11:02:39;;;;;;;;;;;;;;;;;;6257397;22;20231;-87
2023/09/23 11:05:11;;;;;;;;;;;;;;;;;;6232095;22;19926;-87
2023/09/23 11:07:38;;;;;;;;;;;;;;;;;;6257692;22;19959;-87
2023/09/23 11:10:08;;;;;;;;;;;;;;;;;;6262772;22;19946;-87
2023/09/23 11:12:35;;;;;;;;;;;;;;;;;;6233218;22;20430;-88
2023/09/23 11:15:02;;;;;;;;;;;;;;;;;;6260266;22;19920;-87
2023/09/23 11:17:30;;;;;;;;;;;;;;;;;;6259565;22;19977;-87
2023/09/23 11:19:57;;;;;;;;;;;;;;;;;;6261672;22;19920;-87
2023/09/23 11:22:28;;;;;;;;;;;;;;;;;;6259251;22;19923;-88
2023/09/23 11:24:58;;;;;;;;;;;;;;;;;;6263185;22;19919;-87
2023/09/23 11:27:25;;;;;;;;;;;;;;;;;;6260021;22;19919;-88
2023/09/23 11:29:52;;;;;;;;;;;;;;;;;;6262085;22;19919;-87
2023/09/23 11:32:18;;;;;;;;;;;;;;;;;;6234927;22;19922;-87
2023/09/23 11:34:49;;;;;;;;;;;;;;;;;;6260664;22;19926;-87
2023/09/23 11:37:16;;;;;;;;;;;;;;;;;;6260841;22;19925;-88
2023/09/23 11:39:58;;;;;;;;;;;;;;;;;;6258081;22;19919;-88
2023/09/23 11:42:26;;;;;;;;;;;;;;;;;;6256755;22;19920;-88
2023/09/23 11:44:54;;;;;;;;;;;;;;;;;;6259230;22;20432;-87
2023/09/23 11:47:22;;;;;;;;;;;;;;;;;;6258308;22;20024;-87
2023/09/23 11:49:50;;;;;;;;;;;;;;;;;;6257683;22;19942;-88
2023/09/23 11:52:18;;;;;;;;;;;;;;;;;;6261894;22;19973;-88
2023/09/23 11:54:47;;;;;;;;;;;;;;;;;;6253925;22;19926;-88
2023/09/23 11:57:14;;;;;;;;;;;;;;;;;;6259825;22;19927;-87
2023/09/23 11:59:42;;;;;;;;;;;;;;;;;;6231804;22;19919;-87
2023/09/23 12:02:12;;;;;;;;;;;;;;;;;;6232458;22;20039;-88
2023/09/23 12:04:40;;;;;;;;;;;;;;;;;;6260367;22;20002;-88
2023/09/23 12:07:11;;;;;;;;;;;;;;;;;;6257470;22;20449;-88
2023/09/23 12:09:40;;;;;;;;;;;;;;;;;;6255850;22;20377;-88
2023/09/23 12:12:09;;;;;;;;;;;;;;;;;;6239945;22;19935;-88
2023/09/23 12:14:37;;;;;;;;;;;;;;;;;;6258783;22;19919;-87
2023/09/23 12:17:04;;;;;;;;;;;;;;;;;;6233419;22;20429;-87
2023/09/23 12:19:30;;;;;;;;;;;;;;;;;;6257938;22;19919;-87
2023/09/23 12:21:59;;;;;;;;;;;;;;;;;;6254854;22;19920;-87
2023/09/23 12:24:46;;;;;;;;;;;;;;;;;;6255152;22;19919;-87
2023/09/23 12:27:17;;;;;;;;;;;;;;;;;;6258465;22;19923;-87
2023/09/23 12:29:50;;;;;;;;;;;;;;;;;;6259704;22;20363;-87
2023/09/23 12:32:20;;;;;;;;;;;;;;;;;;6260365;22;19915;-87
2023/09/23 12:34:46;;;;;;;;;;;;;;;;;;6258546;22;19927;-87
2023/09/23 12:37:14;;;;;;;;;;;;;;;;;;6257978;22;19934;-87
2023/09/23 12:39:40;;;;;;;;;;;;;;;;;;6229269;22;19968;-87
2023/09/23 12:42:06;;;;;;;;;;;;;;;;;;6232137;22;19926;-87
2023/09/23 12:44:34;;;;;;;;;;;;;;;;;;6255240;22;19923;-87
2023/09/23 12:47:02;;;;;;;;;;;;;;;;;;6258624;22;19930;-88
2023/09/23 12:49:40;;;;;;;;;;;;;;;;;;6256074;22;19919;-87
2023/09/23 12:52:10;;;;;;;;;;;;;;;;;;6256300;22;19929;-87
2023/09/23 12:54:39;;;;;;;;;;;;;;;;;;6256786;22;19915;-87
2023/09/23 12:57:06;;;;;;;;;;;;;;;;;;6231661;22;19919;-87
2023/09/23 12:59:33;;;;;;;;;;;;;;;;;;6255456;22;19937;-87
2023/09/23 13:02:01;;;;;;;;;;;;;;;;;;6232341;22;19924;-87
2023/09/23 13:04:43;;;;;;;;;;;;;;;;;;6256635;22;19925;-87
2023/09/23 13:07:10;;;;;;;;;;;;;;;;;;6258432;22;19992;-88
2023/09/23 13:09:38;;;;;;;;;;;;;;;;;;6230794;22;20350;-87
2023/09/23 13:12:05;;;;;;;;;;;;;;;;;;6259341;22;20017;-87
2023/09/23 13:14:32;;;;;;;;;;;;;;;;;;6255800;22;20365;-87
2023/09/23 13:16:58;;;;;;;;;;;;;;;;;;6257764;22;19919;-87
2023/09/23 13:19:25;;;;;;;;;;;;;;;;;;6230307;22;19919;-87
2023/09/23 13:21:51;;;;;;;;;;;;;;;;;;6259130;22;19925;-87
2023/09/23 13:24:19;;;;;;;;;;;;;;;;;;6232162;22;20621;-87
2023/09/23 13:26:46;;;;;;;;;;;;;;;;;;6255404;22;19962;-87
2023/09/23 13:29:14;;;;;;;;;;;;;;;;;;6259302;22;20415;-87
2023/09/23 13:31:42;;;;;;;;;;;;;;;;;;6254842;22;20349;-87
2023/09/23 13:34:09;;;;;;;;;;;;;;;;;;6257023;22;19950;-88
2023/09/23 13:36:35;;;;;;;;;;;;;;;;;;6229408;22;19994;-88
2023/09/23 13:39:02;;;;;;;;;;;;;;;;;;6231468;22;20010;-88
2023/09/23 13:41:30;;;;;;;;;;;;;;;;;;6255851;22;19942;-88
2023/09/23 13:43:57;;;;;;;;;;;;;;;;;;6258623;22;19919;-88
2023/09/23 13:46:25;;;;;;;;;;;;;;;;;;6256556;22;19962;-88
2023/09/23 13:48:51;;;;;;;;;;;;;;;;;;6258342;22;19919;-88
2023/09/23 13:51:21;;;;;;;;;;;;;;;;;;6257334;22;19919;-88
2023/09/23 13:53:52;;;;;;;;;;;;;;;;;;6258438;22;19972;-88
2023/09/23 13:56:19;;;;;;;;;;;;;;;;;;6231021;22;19919;-88
2023/09/23 13:58:47;;;;;;;;;;;;;;;;;;6254242;22;19998;-88
2023/09/23 14:01:14;;;;;;;;;;;;;;;;;;6257612;22;19930;-88
2023/09/23 14:03:41;;;;;;;;;;;;;;;;;;6255568;22;20358;-88
2023/09/23 14:06:07;;;;;;;;;;;;;;;;;;6234698;22;19981;-88
2023/09/23 14:08:33;;;;;;;;;;;;;;;;;;6258249;22;20013;-87
2023/09/23 14:11:04;;;;;;;;;;;;;;;;;;6233667;22;19922;-88
2023/09/23 14:13:32;;;;;;;;;;;;;;;;;;6231932;22;20000;-87
2023/09/23 14:16:00;;;;;;;;;;;;;;;;;;6261509;22;19923;-87
2023/09/23 14:18:27;;;;;;;;;;;;;;;;;;6258852;22;20085;-88
2023/09/23 14:20:55;;;;;;;;;;;;;;;;;;6260589;22;19923;-88
2023/09/23 14:23:40;;;;;;;;;;;;;;;;;;6256095;22;20290;-87
2023/09/23 14:26:06;;;;;;;;;;;;;;;;;;6233136;22;19992;-88
2023/09/23 14:28:34;;;;;;;;;;;;;;;;;;6258782;22;20343;-88
2023/09/23 14:31:01;;;;;;;;;;;;;;;;;;6258714;22;19930;-87
2023/09/23 14:33:27;;;;;;;;;;;;;;;;;;6256297;22;19919;-88
2023/09/23 14:35:54;;;;;;;;;;;;;;;;;;6259724;22;20018;-87
2023/09/23 14:38:21;;;;;;;;;;;;;;;;;;6259048;22;20705;-88
2023/09/23 14:41:08;;;;;;;;;;;;;;;;;;6258810;22;20314;-88
2023/09/23 14:43:35;;;;;;;;;;;;;;;;;;6251676;22;19947;-88
2023/09/23 14:46:02;;;;;;;;;;;;;;;;;;6232921;22;20411;-88
2023/09/23 14:48:29;;;;;;;;;;;;;;;;;;6230872;22;19923;-88
2023/09/23 14:50:59;;;;;;;;;;;;;;;;;;6259459;22;19980;-87
2023/09/23 14:53:25;;;;;;;;;;;;;;;;;;6257476;22;20314;-88
2023/09/23 14:55:55;;;;;;;;;;;;;;;;;;6260316;22;20010;-87
2023/09/23 14:58:22;;;;;;;;;;;;;;;;;;6258680;22;19972;-87
2023/09/23 15:00:54;;;;;;;;;;;;;;;;;;6256333;22;19953;-87
2023/09/23 15:03:21;;;;;;;;;;;;;;;;;;6259128;22;19973;-87
2023/09/23 15:05:48;;;;;;;;;;;;;;;;;;6256209;22;19923;-88
2023/09/23 15:08:16;;;;;;;;;;;;;;;;;;6255750;22;19923;-87
2023/09/23 15:10:41;;;;;;;;;;;;;;;;;;6257500;22;19934;-87
2023/09/23 15:13:10;;;;;;;;;;;;;;;;;;6261744;22;20339;-88
2023/09/23 15:15:41;;;;;;;;;;;;;;;;;;6256533;22;19919;-87
2023/09/23 15:18:08;;;;;;;;;;;;;;;;;;6232644;22;19919;-87
2023/09/23 15:20:37;;;;;;;;;;;;;;;;;;6255608;22;19919;-88
2023/09/23 15:23:05;;;;;;;;;;;;;;;;;;6225663;22;19919;-87
2023/09/23 15:25:35;;;;;;;;;;;;;;;;;;6250399;22;19919;-87
2023/09/23 15:28:04;;;;;;;;;;;;;;;;;;6255419;22;19926;-87
2023/09/23 15:30:34;;;;;;;;;;;;;;;;;;6250670;22;19938;-87
2023/09/23 15:33:02;;;;;;;;;;;;;;;;;;6254103;22;19992;-87
2023/09/23 15:35:30;;;;;;;;;;;;;;;;;;6225638;22;19926;-88
2023/09/23 15:37:55;;;;;;;;;;;;;;;;;;6253322;22;19973;-89
2023/09/23 15:40:21;;;;;;;;;;;;;;;;;;6254170;22;19923;-88
2023/09/23 15:42:48;;;;;;;;;;;;;;;;;;6253629;22;19944;-89
2023/09/23 15:45:15;;;;;;;;;;;;;;;;;;6229889;22;20360;-88
2023/09/23 15:47:43;;;;;;;;;;;;;;;;;;6251883;22;19923;-88
2023/09/23 15:50:10;;;;;;;;;;;;;;;;;;6254213;22;19962;-88
2023/09/23 15:56:03;;;;;;;;;;;;;;;;;;;;;
2023/09/23 16:45:24;;;;;;;;;;;;;;;;;;5950203;24;19994;-87
2023/09/23 17:13:32;;;;;;;;;;;;;;;;;;5349114;23;14870797;-88
2023/09/23 17:16:41;;;;;;;;;;;;;;;;;;;;;
2023/09/23 17:19:25;;;;;;;;;;;;;;;;;;6257494;22;19954;-84
2023/09/23 17:21:52;;;;;;;;;;;;;;;;;;6257087;22;19996;-83
2023/09/23 17:24:19;;;;;;;;;;;;;;;;;;6227186;22;19950;-85
2023/09/23 17:30:04;;;;;;;;;;;;;;;;;;6231170;22;20018;-85
2023/09/23 17:32:31;;;;;;;;;;;;;;;;;;6201720;22;19965;-84
2023/09/23 17:35:03;;;;;;;;;;;;;;;;;;6204857;22;20390;-84
2023/09/23 17:37:30;;;;;;;;;;;;;;;;;;6201276;22;19927;-85
2023/09/23 17:39:58;;;;;;;;;;;;;;;;;;6204481;22;19926;-85
2023/09/23 17:42:25;;;;;;;;;;;;;;;;;;6203818;22;19923;-85
2023/09/23 17:44:55;;;;;;;;;;;;;;;;;;6231709;22;19919;-85
2023/09/23 17:47:26;;;;;;;;;;;;;;;;;;6207059;22;19923;-85
2023/09/23 17:49:52;;;;;;;;;;;;;;;;;;6201528;22;19919;-85
2023/09/23 17:52:25;;;;;;;;;;;;;;;;;;6202497;22;20014;-85
2023/09/23 17:54:58;;;;;;;;;;;;;;;;;;6203116;22;19919;-85
2023/09/23 17:57:27;;;;;;;;;;;;;;;;;;6205845;22;20611;-85
2023/09/23 17:59:54;;;;;;;;;;;;;;;;;;6205453;22;19994;-85
2023/09/23 18:02:24;;;;;;;;;;;;;;;;;;6231137;22;19926;-85
2023/09/23 18:05:03;;;;;;;;;;;;;;;;;;6206688;22;20802;-85
2023/09/23 18:07:38;;;;;;;;;;;;;;;;;;6203973;22;19938;-85
2023/09/23 18:10:15;;;;;;;;;;;;;;;;;;6205409;22;20411;-85
2023/09/23 18:15:31;;;;;;;;;;;;;;;;;;6223890;22;19926;-85
2023/09/23 18:17:58;;;;;;;;;;;;;;;;;;6240156;22;20255;-84
2023/09/23 18:20:32;;;;;;;;;;;;;;;;;;6234890;22;19963;-85
2023/09/23 18:23:02;;;;;;;;;;;;;;;;;;6234884;22;20332;-85